Lake Slagle, Ohio
Current Conditions -  °F | °C
As of 2:51 AM on Thursday 18 Dec 2014 (Local Time) from KCAK Reporting Station
Overcast Overcast  
Wind Chill: 17°   Ceiling: 1900
Heat Index: 28°   Visibility: 10mi
Dew Point: 20°   Wind: 13mph
Humidity: 72%   Direction: 280°W
Pressure: 30.17"   Gusts: NA
Location:  40.9014°N, 81.4333°W
Report Text: KCAK 180751Z 28011KT 10SM OVC019 M02/M07 A3017 RMK AO2 SLP232 T10221067
Loading
Personal Weather Stations






























Interactive Weather Map New forecast layout! Learn more

10-Day Weather Forecast

Advertisements
Track Severe Weather on mobile